JTV YLTV-YMEN
Flight info
| Callsign | JTV |
|---|---|
| Flight time | 0h 34m |
| Altitude | 8000 |
| Route | MOZZA V588 MOSVO V512 ESDAN |
| Aircraft | C310/L-SDFGR/S |
Departure
| Time | 2026-04-21 04:09 |
|---|---|
| Airport | Latrobe Valley Airport (YLTV) |
Arrival
| Time | 2026-04-21 04:43 |
|---|---|
| Airport | Melbourne Essendon Airport (YMEN) |
| Time | Latitude | Longitude | Altitude | Speed | Heading |
|---|---|---|---|---|---|
| 2026-04-21 04:01 | -38.21042 | 146.47464 | 190 ft | 0 kts | 233° |
| 2026-04-21 04:06 | -38.21046 | 146.47441 | 189 ft | 5 kts | 299° |
| 2026-04-21 04:06 | -38.20989 | 146.47376 | 186 ft | 16 kts | 313° |
| 2026-04-21 04:06 | -38.20961 | 146.47266 | 183 ft | 12 kts | 239° |
| 2026-04-21 04:07 | -38.21043 | 146.47151 | 180 ft | 17 kts | 223° |
| 2026-04-21 04:07 | -38.21129 | 146.47038 | 178 ft | 17 kts | 222° |
| 2026-04-21 04:07 | -38.21220 | 146.46925 | 176 ft | 19 kts | 225° |
| 2026-04-21 04:07 | -38.21275 | 146.46857 | 175 ft | 20 kts | 222° |
| 2026-04-21 04:08 | -38.21392 | 146.46707 | 174 ft | 25 kts | 227° |
| 2026-04-21 04:08 | -38.21521 | 146.46549 | 172 ft | 21 kts | 215° |
| 2026-04-21 04:08 | -38.21535 | 146.46524 | 172 ft | 14 kts | 42° |
| 2026-04-21 04:08 | -38.21196 | 146.46959 | 213 ft | 107 kts | 42° |
| 2026-04-21 04:09 | -38.20670 | 146.47710 | 745 ft | 118 kts | 45° |
| 2026-04-21 04:09 | -38.20096 | 146.48515 | 1219 ft | 136 kts | 44° |
| 2026-04-21 04:09 | -38.19315 | 146.49107 | 1626 ft | 132 kts | 4° |
| 2026-04-21 04:09 | -38.18475 | 146.48871 | 2004 ft | 120 kts | 320° |
| 2026-04-21 04:10 | -38.18081 | 146.48030 | 2422 ft | 111 kts | 276° |
| 2026-04-21 04:10 | -38.18182 | 146.47095 | 2844 ft | 107 kts | 265° |
| 2026-04-21 04:10 | -38.18283 | 146.46170 | 3272 ft | 104 kts | 264° |
| 2026-04-21 04:10 | -38.18378 | 146.45279 | 3694 ft | 101 kts | 267° |
| 2026-04-21 04:11 | -38.18472 | 146.44412 | 4118 ft | 98 kts | 264° |
| 2026-04-21 04:11 | -38.18568 | 146.43562 | 4514 ft | 99 kts | 265° |
| 2026-04-21 04:11 | -38.18609 | 146.42700 | 4880 ft | 101 kts | 272° |
| 2026-04-21 04:11 | -38.18547 | 146.41803 | 5241 ft | 103 kts | 279° |
| 2026-04-21 04:12 | -38.18409 | 146.40909 | 5621 ft | 104 kts | 283° |
| 2026-04-21 04:12 | -38.18219 | 146.40022 | 6001 ft | 104 kts | 285° |
| 2026-04-21 04:12 | -38.17995 | 146.39156 | 6377 ft | 105 kts | 287° |
| 2026-04-21 04:12 | -38.17746 | 146.38284 | 6759 ft | 105 kts | 288° |
| 2026-04-21 04:13 | -38.17489 | 146.37434 | 7131 ft | 105 kts | 289° |
| 2026-04-21 04:13 | -38.17218 | 146.36572 | 7511 ft | 105 kts | 289° |
| 2026-04-21 04:13 | -38.16940 | 146.35710 | 7884 ft | 106 kts | 290° |
| 2026-04-21 04:13 | -38.16632 | 146.34769 | 7992 ft | 126 kts | 290° |
| 2026-04-21 04:14 | -38.16268 | 146.33670 | 8007 ft | 144 kts | 290° |
| 2026-04-21 04:14 | -38.15857 | 146.32439 | 8005 ft | 156 kts | 291° |
| 2026-04-21 04:14 | -38.15427 | 146.31163 | 8000 ft | 160 kts | 291° |
| 2026-04-21 04:14 | -38.14983 | 146.29842 | 7997 ft | 161 kts | 292° |
| 2026-04-21 04:15 | -38.14578 | 146.28627 | 7996 ft | 162 kts | 291° |
| 2026-04-21 04:15 | -38.14133 | 146.27309 | 7996 ft | 163 kts | 291° |
| 2026-04-21 04:15 | -38.13683 | 146.25975 | 7995 ft | 163 kts | 291° |
| 2026-04-21 04:15 | -38.13229 | 146.24646 | 7995 ft | 163 kts | 291° |
| 2026-04-21 04:16 | -38.12787 | 146.23331 | 7995 ft | 164 kts | 291° |
| 2026-04-21 04:16 | -38.12333 | 146.21985 | 7995 ft | 164 kts | 291° |
| 2026-04-21 04:16 | -38.11886 | 146.20664 | 7995 ft | 164 kts | 291° |
| 2026-04-21 04:16 | -38.11436 | 146.19318 | 7995 ft | 164 kts | 291° |
| 2026-04-21 04:17 | -38.10986 | 146.17995 | 7995 ft | 164 kts | 291° |
| 2026-04-21 04:17 | -38.10571 | 146.16739 | 8280 ft | 148 kts | 295° |
| 2026-04-21 04:17 | -38.10157 | 146.15536 | 8357 ft | 149 kts | 295° |
| 2026-04-21 04:17 | -38.09730 | 146.14293 | 8240 ft | 160 kts | 295° |
| 2026-04-21 04:18 | -38.09289 | 146.12994 | 8160 ft | 165 kts | 295° |
| 2026-04-21 04:18 | -38.08820 | 146.11612 | 7957 ft | 171 kts | 295° |
| 2026-04-21 04:18 | -38.08351 | 146.10219 | 7937 ft | 168 kts | 294° |
| 2026-04-21 04:18 | -38.07879 | 146.08888 | 7943 ft | 165 kts | 296° |
| 2026-04-21 04:19 | -38.07407 | 146.07559 | 7940 ft | 163 kts | 297° |
| 2026-04-21 04:19 | -38.06932 | 146.06244 | 7940 ft | 162 kts | 297° |
| 2026-04-21 04:19 | -38.06469 | 146.04941 | 7940 ft | 162 kts | 296° |
| 2026-04-21 04:19 | -38.05991 | 146.03627 | 7941 ft | 161 kts | 296° |
| 2026-04-21 04:20 | -38.05522 | 146.02327 | 7940 ft | 161 kts | 296° |
| 2026-04-21 04:20 | -38.05059 | 146.01028 | 7940 ft | 161 kts | 296° |
| 2026-04-21 04:20 | -38.04590 | 145.99741 | 7940 ft | 161 kts | 296° |
| 2026-04-21 04:20 | -38.04119 | 145.98445 | 7940 ft | 161 kts | 296° |
| 2026-04-21 04:21 | -38.03657 | 145.97160 | 7940 ft | 161 kts | 296° |
| 2026-04-21 04:21 | -38.03187 | 145.95859 | 7940 ft | 161 kts | 296° |
| 2026-04-21 04:21 | -38.02725 | 145.94575 | 7940 ft | 161 kts | 296° |
| 2026-04-21 04:21 | -38.02254 | 145.93274 | 7940 ft | 161 kts | 296° |
| 2026-04-21 04:22 | -38.01783 | 145.91971 | 7940 ft | 161 kts | 296° |
| 2026-04-21 04:22 | -38.01311 | 145.90654 | 7940 ft | 161 kts | 296° |
| 2026-04-21 04:22 | -38.00847 | 145.89342 | 7940 ft | 161 kts | 296° |
| 2026-04-21 04:22 | -38.00388 | 145.88042 | 7940 ft | 161 kts | 296° |
| 2026-04-21 04:23 | -37.99927 | 145.86740 | 7940 ft | 160 kts | 296° |
| 2026-04-21 04:23 | -37.99457 | 145.85431 | 7940 ft | 160 kts | 296° |
| 2026-04-21 04:23 | -37.98991 | 145.84134 | 7940 ft | 160 kts | 296° |
| 2026-04-21 04:23 | -37.98528 | 145.82844 | 7940 ft | 160 kts | 296° |
| 2026-04-21 04:24 | -37.98064 | 145.81554 | 7940 ft | 160 kts | 296° |
| 2026-04-21 04:24 | -37.97606 | 145.80266 | 7939 ft | 160 kts | 296° |
| 2026-04-21 04:24 | -37.97142 | 145.78984 | 7939 ft | 160 kts | 296° |
| 2026-04-21 04:24 | -37.96674 | 145.77698 | 7939 ft | 160 kts | 297° |
| 2026-04-21 04:25 | -37.96199 | 145.76407 | 7939 ft | 160 kts | 296° |
| 2026-04-21 04:25 | -37.95736 | 145.75127 | 7939 ft | 160 kts | 296° |
| 2026-04-21 04:25 | -37.95269 | 145.73836 | 7939 ft | 160 kts | 296° |
| 2026-04-21 04:25 | -37.94797 | 145.72545 | 7939 ft | 160 kts | 296° |
| 2026-04-21 04:26 | -37.94337 | 145.71266 | 7939 ft | 160 kts | 296° |
| 2026-04-21 04:26 | -37.93868 | 145.69977 | 7939 ft | 160 kts | 296° |
| 2026-04-21 04:26 | -37.93399 | 145.68684 | 7939 ft | 160 kts | 296° |
| 2026-04-21 04:26 | -37.92934 | 145.67397 | 7939 ft | 160 kts | 296° |
| 2026-04-21 04:27 | -37.92458 | 145.66097 | 7938 ft | 160 kts | 296° |
| 2026-04-21 04:27 | -37.91952 | 145.64844 | 7938 ft | 160 kts | 303° |
| 2026-04-21 04:27 | -37.91437 | 145.63594 | 7946 ft | 160 kts | 294° |
| 2026-04-21 04:27 | -37.90898 | 145.62349 | 7940 ft | 160 kts | 300° |
| 2026-04-21 04:28 | -37.90419 | 145.61057 | 7937 ft | 160 kts | 296° |
| 2026-04-21 04:28 | -37.89855 | 145.59833 | 7939 ft | 160 kts | 301° |
| 2026-04-21 04:28 | -37.89320 | 145.58598 | 7942 ft | 160 kts | 297° |
| 2026-04-21 04:28 | -37.88846 | 145.57335 | 7943 ft | 161 kts | 296° |
| 2026-04-21 04:29 | -37.88327 | 145.56074 | 7942 ft | 160 kts | 301° |
| 2026-04-21 04:29 | -37.87728 | 145.54900 | 7942 ft | 160 kts | 304° |
| 2026-04-21 04:29 | -37.87147 | 145.53671 | 7942 ft | 161 kts | 298° |
| 2026-04-21 04:29 | -37.86685 | 145.52382 | 7942 ft | 161 kts | 295° |
| 2026-04-21 04:30 | -37.86276 | 145.51062 | 7942 ft | 161 kts | 291° |
| 2026-04-21 04:30 | -37.85866 | 145.49727 | 7941 ft | 161 kts | 292° |
| 2026-04-21 04:30 | -37.85527 | 145.48360 | 7941 ft | 162 kts | 287° |
| 2026-04-21 04:30 | -37.85246 | 145.46974 | 7938 ft | 162 kts | 291° |
| 2026-04-21 04:31 | -37.84662 | 145.45773 | 7944 ft | 160 kts | 307° |
| 2026-04-21 04:31 | -37.84100 | 145.44562 | 7886 ft | 164 kts | 295° |
| 2026-04-21 04:31 | -37.83633 | 145.43210 | 7761 ft | 169 kts | 295° |
| 2026-04-21 04:31 | -37.83214 | 145.41794 | 7620 ft | 173 kts | 290° |
| 2026-04-21 04:32 | -37.82793 | 145.40367 | 7489 ft | 174 kts | 295° |
| 2026-04-21 04:32 | -37.82333 | 145.38945 | 7357 ft | 175 kts | 295° |
| 2026-04-21 04:32 | -37.81728 | 145.37624 | 7227 ft | 174 kts | 305° |
| 2026-04-21 04:32 | -37.81234 | 145.36194 | 7084 ft | 177 kts | 287° |
| 2026-04-21 04:33 | -37.80836 | 145.34735 | 6961 ft | 175 kts | 300° |
| 2026-04-21 04:33 | -37.80321 | 145.33296 | 6834 ft | 175 kts | 298° |
| 2026-04-21 04:33 | -37.79801 | 145.31902 | 6713 ft | 176 kts | 297° |
| 2026-04-21 04:33 | -37.79269 | 145.30486 | 6589 ft | 176 kts | 297° |
| 2026-04-21 04:34 | -37.78745 | 145.29074 | 6468 ft | 176 kts | 298° |
| 2026-04-21 04:34 | -37.78227 | 145.27672 | 6282 ft | 177 kts | 298° |
| 2026-04-21 04:34 | -37.77734 | 145.26291 | 6052 ft | 167 kts | 297° |
| 2026-04-21 04:34 | -37.77286 | 145.24962 | 5819 ft | 160 kts | 297° |
| 2026-04-21 04:35 | -37.76850 | 145.23682 | 5590 ft | 156 kts | 297° |
| 2026-04-21 04:35 | -37.76421 | 145.22426 | 5362 ft | 153 kts | 297° |
| 2026-04-21 04:35 | -37.76020 | 145.21251 | 5077 ft | 139 kts | 298° |
| 2026-04-21 04:35 | -37.75648 | 145.20160 | 4788 ft | 129 kts | 298° |
| 2026-04-21 04:36 | -37.75304 | 145.19147 | 4454 ft | 126 kts | 299° |
| 2026-04-21 04:36 | -37.74947 | 145.18115 | 4090 ft | 129 kts | 299° |
| 2026-04-21 04:36 | -37.74591 | 145.17059 | 3720 ft | 131 kts | 298° |
| 2026-04-21 04:36 | -37.74229 | 145.15999 | 3347 ft | 132 kts | 299° |
| 2026-04-21 04:37 | -37.73857 | 145.14916 | 2969 ft | 133 kts | 299° |
| 2026-04-21 04:37 | -37.73488 | 145.13844 | 2597 ft | 134 kts | 299° |
| 2026-04-21 04:37 | -37.73120 | 145.12775 | 2227 ft | 135 kts | 299° |
| 2026-04-21 04:37 | -37.72868 | 145.11632 | 2028 ft | 130 kts | 282° |
| 2026-04-21 04:38 | -37.72715 | 145.10539 | 2001 ft | 126 kts | 285° |
| 2026-04-21 04:38 | -37.72599 | 145.09438 | 1999 ft | 127 kts | 282° |
| 2026-04-21 04:38 | -37.72533 | 145.08293 | 1998 ft | 128 kts | 279° |
| 2026-04-21 04:38 | -37.72500 | 145.07159 | 1998 ft | 128 kts | 278° |
| 2026-04-21 04:39 | -37.72487 | 145.06108 | 1998 ft | 129 kts | 277° |
| 2026-04-21 04:39 | -37.72481 | 145.04930 | 1998 ft | 129 kts | 276° |
| 2026-04-21 04:39 | -37.72469 | 145.03803 | 1999 ft | 129 kts | 276° |
| 2026-04-21 04:39 | -37.72457 | 145.02675 | 2058 ft | 122 kts | 280° |
| 2026-04-21 04:40 | -37.72449 | 145.01544 | 1969 ft | 134 kts | 276° |
| 2026-04-21 04:40 | -37.72373 | 145.00343 | 1848 ft | 139 kts | 277° |
| 2026-04-21 04:40 | -37.72428 | 144.99162 | 1733 ft | 142 kts | 272° |
| 2026-04-21 04:40 | -37.72507 | 144.97900 | 1608 ft | 142 kts | 272° |
| 2026-04-21 04:41 | -37.72551 | 144.96649 | 1485 ft | 142 kts | 274° |
| 2026-04-21 04:41 | -37.72623 | 144.95393 | 1360 ft | 143 kts | 271° |
| 2026-04-21 04:41 | -37.72689 | 144.94264 | 1246 ft | 144 kts | 269° |
| 2026-04-21 04:41 | -37.72972 | 144.93133 | 1081 ft | 129 kts | 245° |
| 2026-04-21 04:42 | -37.73612 | 144.92374 | 1008 ft | 127 kts | 210° |
| 2026-04-21 04:42 | -37.74392 | 144.91832 | 989 ft | 123 kts | 227° |
| 2026-04-21 04:42 | -37.74704 | 144.91026 | 973 ft | 94 kts | 277° |
| 2026-04-21 04:42 | -37.74443 | 144.90369 | 752 ft | 76 kts | 320° |
| 2026-04-21 04:43 | -37.73928 | 144.90166 | 486 ft | 79 kts | 356° |
| 2026-04-21 04:43 | -37.73390 | 144.90143 | 302 ft | 75 kts | 360° |
| 2026-04-21 04:43 | -37.72982 | 144.90120 | 283 ft | 41 kts | 358° |
| 2026-04-21 04:43 | -37.72793 | 144.90102 | 282 ft | 18 kts | 308° |
| 2026-04-21 04:44 | -37.72745 | 144.89989 | 282 ft | 16 kts | 360° |
| 2026-04-21 04:44 | -37.72628 | 144.89986 | 282 ft | 18 kts | 354° |
| 2026-04-21 04:44 | -37.72506 | 144.89940 | 282 ft | 12 kts | 292° |
| 2026-04-21 04:44 | -37.72491 | 144.89917 | 282 ft | 0 kts | 324° |